Time;durP1;ratioP1;P1;durP2;ratioP2;P2;SDS_P1;SDS_P2;PMS_P1;PMS_P2;Temp;Humidity;BMP_temperature;BMP_pressure;BME280_temperature;BME280_humidity;BME280_pressure;Samples;Min_cycle;Max_cycle;Signal;HPM_P1;HPM_P2
2022/05/12 00:01:28;;;;;;;;;;;17.20;99.90;;;;;;5065720;28;19925;-69
2022/05/12 00:03:58;;;;;;;;;;;17.20;99.90;;;;;;5060533;28;20406;-70
2022/05/12 00:06:28;;;;;;;;;;;17.30;99.90;;;;;;5064905;28;19929;-71
2022/05/12 00:08:57;;;;;;;;;;;17.30;99.90;;;;;;5061594;28;20399;-71
2022/05/12 00:11:24;;;;;;;;;;;17.30;99.90;;;;;;5058011;28;19925;-70
2022/05/12 00:13:50;;;;;;;;;;;17.20;99.90;;;;;;5062214;28;20023;-69
2022/05/12 00:16:17;;;;;;;;;;;17.20;99.90;;;;;;5072142;28;19932;-69
2022/05/12 00:18:44;;;;;;;;;;;17.20;99.90;;;;;;5055355;28;19935;-69
2022/05/12 00:21:10;;;;;;;;;;;17.20;99.90;;;;;;5075335;28;19924;-69
2022/05/12 00:23:37;;;;;;;;;;;17.10;99.90;;;;;;5070644;28;19928;-69
2022/05/12 00:26:07;;;;;;;;;;;17.20;99.90;;;;;;5070631;28;19932;-70
2022/05/12 00:28:33;;;;;;;;;;;17.40;99.90;;;;;;5067583;28;19925;-69
2022/05/12 00:31:14;;;;;;;;;;;17.40;99.90;;;;;;5047089;28;20350;-69
2022/05/12 00:33:41;;;;;;;;;;;17.30;99.90;;;;;;5059497;28;20551;-70
2022/05/12 00:36:07;;;;;;;;;;;17.20;99.90;;;;;;5054167;28;19933;-69
2022/05/12 00:38:34;;;;;;;;;;;17.20;99.90;;;;;;5059004;28;19935;-69
2022/05/12 00:41:01;;;;;;;;;;;17.10;99.90;;;;;;5066204;28;19925;-69
2022/05/12 00:43:47;;;;;;;;;;;17.10;99.90;;;;;;5074511;28;19932;-69
2022/05/12 00:46:15;;;;;;;;;;;17.00;99.90;;;;;;5064173;28;19931;-71
2022/05/12 00:48:43;;;;;;;;;;;17.00;99.90;;;;;;5059687;28;20432;-69
2022/05/12 00:51:12;;;;;;;;;;;17.00;99.90;;;;;;5069191;28;20394;-69
2022/05/12 00:53:39;;;;;;;;;;;16.90;99.90;;;;;;5070615;28;20014;-72
2022/05/12 00:56:08;;;;;;;;;;;16.90;99.90;;;;;;5066349;28;19955;-69
2022/05/12 00:58:35;;;;;;;;;;;16.90;99.90;;;;;;5074272;28;20372;-69
2022/05/12 01:01:04;;;;;;;;;;;16.80;99.90;;;;;;5067910;28;20014;-70
2022/05/12 01:03:30;;;;;;;;;;;16.70;99.90;;;;;;5065565;28;19924;-71
2022/05/12 01:05:58;;;;;;;;;;;16.60;99.90;;;;;;5057527;28;20362;-69
2022/05/12 01:08:25;;;;;;;;;;;16.50;99.90;;;;;;5075893;28;19928;-72
2022/05/12 01:10:55;;;;;;;;;;;16.40;99.90;;;;;;5061565;28;19925;-69
2022/05/12 01:13:26;;;;;;;;;;;16.40;99.90;;;;;;5072559;28;19935;-69
2022/05/12 01:15:57;;;;;;;;;;;16.30;99.90;;;;;;5071652;28;19928;-69
2022/05/12 01:18:23;;;;;;;;;;;16.20;99.90;;;;;;5082352;28;19924;-69
2022/05/12 01:20:51;;;;;;;;;;;16.20;99.90;;;;;;5068060;28;19938;-69
2022/05/12 01:23:22;;;;;;;;;;;16.20;99.90;;;;;;5068918;28;19933;-71
2022/05/12 01:25:48;;;;;;;;;;;16.10;99.90;;;;;;5090641;28;20390;-70
2022/05/12 01:28:15;;;;;;;;;;;16.10;99.90;;;;;;5062600;28;19928;-69
2022/05/12 01:30:42;;;;;;;;;;;16.10;99.90;;;;;;5097531;28;19928;-70
2022/05/12 01:33:09;;;;;;;;;;;16.00;99.90;;;;;;5067487;28;20291;-69
2022/05/12 01:35:35;;;;;;;;;;;16.00;99.90;;;;;;5066219;28;20035;-69
2022/05/12 01:38:02;;;;;;;;;;;16.00;99.90;;;;;;5071265;28;19925;-69
2022/05/12 01:40:29;;;;;;;;;;;15.90;99.90;;;;;;5090230;28;19924;-69
2022/05/12 01:42:56;;;;;;;;;;;15.90;99.90;;;;;;5065905;28;20012;-69
2022/05/12 01:45:23;;;;;;;;;;;15.80;99.90;;;;;;5068993;28;19932;-69
2022/05/12 01:47:50;;;;;;;;;;;15.70;99.90;;;;;;5078640;28;19933;-69
2022/05/12 01:50:18;;;;;;;;;;;15.60;99.90;;;;;;5075531;28;19924;-69
2022/05/12 01:52:45;;;;;;;;;;;15.60;99.90;;;;;;5075226;28;19939;-70
2022/05/12 01:55:13;;;;;;;;;;;15.60;99.90;;;;;;5069782;28;19925;-69
2022/05/12 01:57:43;;;;;;;;;;;15.40;99.90;;;;;;5052526;28;21317;-69
2022/05/12 02:00:14;;;;;;;;;;;15.40;99.90;;;;;;5067530;28;19924;-69
2022/05/12 02:02:40;;;;;;;;;;;15.40;99.90;;;;;;5065639;28;19924;-69
2022/05/12 02:05:11;;;;;;;;;;;15.30;99.90;;;;;;5064554;28;19934;-70
2022/05/12 02:07:43;;;;;;;;;;;15.20;99.90;;;;;;5058506;28;19978;-69
2022/05/12 02:10:10;;;;;;;;;;;15.20;99.90;;;;;;5067087;28;20367;-69
2022/05/12 02:12:40;;;;;;;;;;;15.00;99.90;;;;;;5068785;28;20550;-69
2022/05/12 02:15:08;;;;;;;;;;;14.90;99.90;;;;;;5071375;28;19924;-69
2022/05/12 02:17:35;;;;;;;;;;;14.80;99.90;;;;;;5072521;28;19925;-69
2022/05/12 02:20:02;;;;;;;;;;;14.70;99.90;;;;;;5079932;28;20399;-69
2022/05/12 02:22:32;;;;;;;;;;;14.50;99.90;;;;;;5080120;28;20023;-69
2022/05/12 02:24:59;;;;;;;;;;;14.30;99.90;;;;;;5069276;28;20023;-69
2022/05/12 02:27:25;;;;;;;;;;;14.10;99.90;;;;;;5081315;28;19963;-70
2022/05/12 02:29:52;;;;;;;;;;;14.00;99.90;;;;;;5070582;28;20426;-70
2022/05/12 02:32:29;;;;;;;;;;;13.90;99.90;;;;;;5068762;28;19933;-70
2022/05/12 02:34:56;;;;;;;;;;;13.80;99.90;;;;;;5070634;28;19928;-70
2022/05/12 02:37:23;;;;;;;;;;;13.70;99.90;;;;;;5074089;28;19931;-70
2022/05/12 02:39:50;;;;;;;;;;;13.60;99.90;;;;;;5068920;28;20299;-70
2022/05/12 02:42:17;;;;;;;;;;;13.60;99.90;;;;;;5053697;28;19925;-69
2022/05/12 02:44:44;;;;;;;;;;;13.60;99.90;;;;;;5068810;28;19967;-70
2022/05/12 02:47:11;;;;;;;;;;;13.40;99.90;;;;;;5070434;28;19931;-70
2022/05/12 02:49:37;;;;;;;;;;;13.40;99.90;;;;;;5071335;28;19933;-70
2022/05/12 02:52:06;;;;;;;;;;;13.30;99.90;;;;;;5072768;28;20010;-70
2022/05/12 02:54:34;;;;;;;;;;;13.30;99.90;;;;;;5072858;28;19928;-70
2022/05/12 02:57:01;;;;;;;;;;;13.20;99.90;;;;;;5063803;28;20253;-70
2022/05/12 02:59:27;;;;;;;;;;;13.20;99.90;;;;;;5075684;28;20035;-69
2022/05/12 03:01:54;;;;;;;;;;;13.10;99.90;;;;;;5070726;28;19928;-69
2022/05/12 03:04:21;;;;;;;;;;;13.10;99.90;;;;;;5062538;28;19925;-70
2022/05/12 03:06:47;;;;;;;;;;;13.10;99.90;;;;;;5069816;28;19925;-70
2022/05/12 03:09:14;;;;;;;;;;;13.00;99.90;;;;;;5072490;28;20495;-70
2022/05/12 03:11:41;;;;;;;;;;;13.00;99.90;;;;;;5071131;28;19931;-70
2022/05/12 03:14:07;;;;;;;;;;;13.00;99.90;;;;;;5070374;28;19924;-70
2022/05/12 03:16:35;;;;;;;;;;;12.90;99.90;;;;;;5069758;28;19954;-71
2022/05/12 03:19:02;;;;;;;;;;;12.90;99.90;;;;;;5073980;28;20024;-69
2022/05/12 03:21:29;;;;;;;;;;;12.90;99.90;;;;;;5072425;28;20011;-69
2022/05/12 03:23:56;;;;;;;;;;;12.80;99.90;;;;;;5070050;28;20321;-69
2022/05/12 03:26:25;;;;;;;;;;;12.70;99.90;;;;;;5068473;28;19968;-71
2022/05/12 03:28:52;;;;;;;;;;;12.70;99.90;;;;;;5064600;28;19931;-70
2022/05/12 03:31:19;;;;;;;;;;;12.50;99.90;;;;;;5063327;28;19938;-70
2022/05/12 03:33:46;;;;;;;;;;;12.40;99.90;;;;;;5075603;28;19924;-70
2022/05/12 03:36:15;;;;;;;;;;;12.30;99.90;;;;;;5072787;28;20339;-71
2022/05/12 03:38:42;;;;;;;;;;;12.30;99.90;;;;;;5067814;28;19932;-71
2022/05/12 03:41:09;;;;;;;;;;;12.20;99.90;;;;;;5069989;28;19959;-71
2022/05/12 03:46:28;;;;;;;;;;;12.20;99.90;;;;;;5074299;28;20280;-71
2022/05/12 03:48:55;;;;;;;;;;;12.30;99.90;;;;;;5067532;28;19956;-70
2022/05/12 03:51:21;;;;;;;;;;;12.40;99.90;;;;;;5059279;28;19963;-70
2022/05/12 03:53:48;;;;;;;;;;;12.40;99.90;;;;;;5069251;28;20390;-71
2022/05/12 03:56:17;;;;;;;;;;;12.40;99.90;;;;;;5075037;28;19928;-71
2022/05/12 03:58:44;;;;;;;;;;;12.40;99.90;;;;;;5074779;28;19936;-71
2022/05/12 04:01:11;;;;;;;;;;;12.30;99.90;;;;;;5070394;28;20252;-71
2022/05/12 04:03:37;;;;;;;;;;;12.30;99.90;;;;;;5098484;27;19928;-71
2022/05/12 04:06:05;;;;;;;;;;;12.40;99.90;;;;;;5073583;28;20349;-71
2022/05/12 04:08:32;;;;;;;;;;;12.40;99.90;;;;;;5070160;28;19924;-71
2022/05/12 04:11:01;;;;;;;;;;;12.50;99.90;;;;;;5075116;28;19924;-71
2022/05/12 04:13:28;;;;;;;;;;;12.40;99.90;;;;;;5068723;28;20011;-71
2022/05/12 04:15:55;;;;;;;;;;;12.50;99.90;;;;;;5093290;28;19931;-71
2022/05/12 04:18:22;;;;;;;;;;;12.50;99.90;;;;;;5089437;28;19935;-71
2022/05/12 04:20:49;;;;;;;;;;;12.50;99.90;;;;;;5093842;27;19925;-71
2022/05/12 04:23:15;;;;;;;;;;;12.60;99.90;;;;;;5070128;28;19925;-71
2022/05/12 04:25:42;;;;;;;;;;;12.70;99.90;;;;;;5071004;28;20028;-71
2022/05/12 04:28:08;;;;;;;;;;;12.90;99.90;;;;;;5062589;28;20481;-71
2022/05/12 04:30:36;;;;;;;;;;;13.10;99.90;;;;;;5065428;28;19955;-71
2022/05/12 04:35:48;;;;;;;;;;;13.60;99.90;;;;;;5063610;28;20027;-70
2022/05/12 04:38:14;;;;;;;;;;;13.90;99.90;;;;;;5066798;28;19932;-71
2022/05/12 04:40:41;;;;;;;;;;;14.10;99.90;;;;;;5071607;28;19931;-71
2022/05/12 04:43:08;;;;;;;;;;;14.40;99.90;;;;;;5069209;28;19951;-71
2022/05/12 04:45:34;;;;;;;;;;;14.60;99.90;;;;;;5067521;28;20042;-70
2022/05/12 04:48:02;;;;;;;;;;;14.80;99.90;;;;;;5069129;28;19928;-70
2022/05/12 04:50:31;;;;;;;;;;;14.90;99.90;;;;;;5070514;28;19956;-70
2022/05/12 04:52:58;;;;;;;;;;;14.90;99.90;;;;;;5069708;28;19925;-71
2022/05/12 04:55:25;;;;;;;;;;;15.10;99.90;;;;;;5088474;27;20008;-71
2022/05/12 04:57:55;;;;;;;;;;;15.20;99.90;;;;;;5070002;28;19925;-71
2022/05/12 05:00:27;;;;;;;;;;;15.20;99.90;;;;;;5066319;28;19996;-71
2022/05/12 05:02:54;;;;;;;;;;;15.30;99.90;;;;;;5069308;28;19928;-71
2022/05/12 05:05:20;;;;;;;;;;;15.40;99.90;;;;;;5062853;28;19970;-72
2022/05/12 05:07:51;;;;;;;;;;;15.50;99.90;;;;;;5063702;28;19933;-71
2022/05/12 05:10:17;;;;;;;;;;;15.50;99.90;;;;;;5058184;28;19929;-71
2022/05/12 05:12:44;;;;;;;;;;;15.60;99.90;;;;;;5072117;28;19931;-70
2022/05/12 05:15:13;;;;;;;;;;;15.90;99.90;;;;;;5076173;28;19929;-70
2022/05/12 05:17:42;;;;;;;;;;;16.60;99.90;;;;;;5070595;28;19947;-70
2022/05/12 05:20:16;;;;;;;;;;;16.90;99.90;;;;;;5064771;28;20212;-70
2022/05/12 05:22:44;;;;;;;;;;;17.10;99.90;;;;;;5058809;28;20039;-70
2022/05/12 05:25:10;;;;;;;;;;;17.30;99.90;;;;;;5070015;28;19924;-70
2022/05/12 05:27:38;;;;;;;;;;;17.30;99.90;;;;;;5066341;28;19928;-70
2022/05/12 05:30:06;;;;;;;;;;;17.30;99.90;;;;;;5068086;28;19943;-70
2022/05/12 05:32:32;;;;;;;;;;;17.30;99.90;;;;;;5074991;28;19955;-72
2022/05/12 05:34:59;;;;;;;;;;;17.50;99.90;;;;;;5065949;28;19952;-71
2022/05/12 05:37:26;;;;;;;;;;;17.70;99.90;;;;;;5068265;28;20604;-72
2022/05/12 05:39:52;;;;;;;;;;;18.10;99.90;;;;;;5068395;28;20019;-69
2022/05/12 05:42:20;;;;;;;;;;;18.60;99.90;;;;;;5066813;28;19924;-72
2022/05/12 05:44:47;;;;;;;;;;;19.10;99.90;;;;;;5066207;28;20019;-71
2022/05/12 05:47:14;;;;;;;;;;;19.40;99.90;;;;;;5054688;28;20039;-70
2022/05/12 05:49:41;;;;;;;;;;;19.40;99.90;;;;;;5067181;28;20015;-71
2022/05/12 05:54:57;;;;;;;;;;;19.50;99.90;;;;;;5069150;28;19925;-70
2022/05/12 05:57:30;;;;;;;;;;;19.30;99.90;;;;;;5071076;28;19928;-73
2022/05/12 05:59:57;;;;;;;;;;;19.10;99.90;;;;;;5066838;28;19971;-73
2022/05/12 06:02:24;;;;;;;;;;;19.20;99.90;;;;;;5100810;28;19930;-72
2022/05/12 06:04:51;;;;;;;;;;;20.20;99.90;;;;;;5057580;28;20018;-70
2022/05/12 06:07:17;;;;;;;;;;;20.60;99.90;;;;;;5067866;28;20019;-71
2022/05/12 06:09:44;;;;;;;;;;;20.80;99.90;;;;;;5065590;28;20006;-72
2022/05/12 06:12:11;;;;;;;;;;;21.20;99.90;;;;;;5067848;28;19971;-73
2022/05/12 06:14:38;;;;;;;;;;;21.90;99.90;;;;;;5069628;28;19928;-72
2022/05/12 06:17:05;;;;;;;;;;;22.30;99.90;;;;;;5069413;28;19924;-74
2022/05/12 06:19:32;;;;;;;;;;;23.10;99.90;;;;;;5059536;28;19929;-73
2022/05/12 06:22:00;;;;;;;;;;;24.30;99.90;;;;;;5066199;28;19997;-70
2022/05/12 06:24:27;;;;;;;;;;;25.00;99.90;;;;;;5062264;28;19935;-73
2022/05/12 06:26:54;;;;;;;;;;;25.70;99.90;;;;;;5056295;28;19933;-73
2022/05/12 06:29:20;;;;;;;;;;;26.10;99.90;;;;;;5100000;28;19924;-72
2022/05/12 06:31:47;;;;;;;;;;;26.40;99.90;;;;;;5060263;28;19968;-72
2022/05/12 06:34:15;;;;;;;;;;;26.90;99.90;;;;;;5054219;28;20406;-73
2022/05/12 06:36:41;;;;;;;;;;;27.40;99.90;;;;;;5048427;28;19932;-71
2022/05/12 06:39:11;;;;;;;;;;;;;;;;;;5056753;28;19959;-74
2022/05/12 06:41:42;;;;;;;;;;;27.80;99.90;;;;;;5052526;28;20367;-70
2022/05/12 06:44:11;;;;;;;;;;;27.60;99.90;;;;;;5059758;28;19924;-72
2022/05/12 06:46:42;;;;;;;;;;;27.90;99.90;;;;;;5056015;28;19929;-71
2022/05/12 06:49:09;;;;;;;;;;;28.10;99.90;;;;;;5056421;28;20455;-73
2022/05/12 06:51:36;;;;;;;;;;;28.00;99.90;;;;;;5052692;28;19925;-70
2022/05/12 06:54:06;;;;;;;;;;;28.10;99.90;;;;;;5064187;28;19940;-72
2022/05/12 06:56:35;;;;;;;;;;;27.90;99.90;;;;;;5065595;28;19931;-70
2022/05/12 06:59:02;;;;;;;;;;;27.70;99.90;;;;;;5063900;28;19928;-73
2022/05/12 07:01:29;;;;;;;;;;;27.60;99.90;;;;;;5061115;28;20570;-71
2022/05/12 07:03:56;;;;;;;;;;;27.40;99.90;;;;;;5071131;28;19933;-72
2022/05/12 07:06:23;;;;;;;;;;;27.80;99.90;;;;;;5088878;28;19924;-74
2022/05/12 07:08:51;;;;;;;;;;;27.50;99.90;;;;;;5078715;28;19975;-74
2022/05/12 07:11:17;;;;;;;;;;;28.00;99.90;;;;;;5067574;28;19936;-73
2022/05/12 07:13:44;;;;;;;;;;;28.50;99.30;;;;;;5061636;28;19956;-73
2022/05/12 07:16:11;;;;;;;;;;;28.80;98.90;;;;;;5082137;28;19932;-70
2022/05/12 07:18:44;;;;;;;;;;;29.10;99.00;;;;;;5076835;28;20442;-72
2022/05/12 07:26:54;;;;;;;;;;;28.70;98.60;;;;;;5066271;28;19928;-73
2022/05/12 07:29:25;;;;;;;;;;;29.10;98.40;;;;;;5067863;28;19986;-74
2022/05/12 07:31:52;;;;;;;;;;;28.80;98.20;;;;;;5067293;28;19931;-72
2022/05/12 07:34:19;;;;;;;;;;;27.90;98.50;;;;;;5082670;28;19924;-71
2022/05/12 07:36:50;;;;;;;;;;;27.10;99.10;;;;;;5071269;28;19929;-71
2022/05/12 07:39:18;;;;;;;;;;;27.30;98.40;;;;;;5065053;28;19929;-73
2022/05/12 07:41:48;;;;;;;;;;;27.20;98.40;;;;;;5057521;28;19932;-72
2022/05/12 07:44:17;;;;;;;;;;;27.80;98.10;;;;;;5063233;28;20016;-71
2022/05/12 07:46:45;;;;;;;;;;;28.10;98.20;;;;;;5057722;28;20011;-71
2022/05/12 07:49:12;;;;;;;;;;;26.80;98.70;;;;;;5067924;28;20026;-73
2022/05/12 07:51:46;;;;;;;;;;;26.70;99.10;;;;;;5070445;28;20376;-71
2022/05/12 07:54:13;;;;;;;;;;;27.00;99.90;;;;;;5061373;28;20012;-73
2022/05/12 07:56:39;;;;;;;;;;;27.40;98.70;;;;;;5063253;28;19925;-71
2022/05/12 07:59:06;;;;;;;;;;;28.10;97.90;;;;;;5069714;28;20586;-73
2022/05/12 08:01:33;;;;;;;;;;;28.00;97.60;;;;;;5064288;28;19939;-72
2022/05/12 08:03:59;;;;;;;;;;;27.10;98.20;;;;;;5069061;28;19928;-72
2022/05/12 08:06:26;;;;;;;;;;;26.70;98.40;;;;;;5067283;28;19932;-73
2022/05/12 08:08:53;;;;;;;;;;;26.20;98.90;;;;;;5067034;28;20015;-74
2022/05/12 08:11:20;;;;;;;;;;;26.30;99.80;;;;;;5065950;28;19932;-73
2022/05/12 08:13:47;;;;;;;;;;;27.20;98.10;;;;;;5067749;28;19931;-74
2022/05/12 08:16:16;;;;;;;;;;;28.10;97.90;;;;;;5075643;28;19947;-70
2022/05/12 08:18:45;;;;;;;;;;;28.90;96.50;;;;;;5083206;28;19925;-73
2022/05/12 08:21:16;;;;;;;;;;;28.20;97.30;;;;;;5068399;28;20587;-71
2022/05/12 08:23:43;;;;;;;;;;;27.90;96.70;;;;;;5075909;28;20019;-72
2022/05/12 08:26:10;;;;;;;;;;;27.00;97.10;;;;;;5056755;28;20036;-71
2022/05/12 08:28:40;;;;;;;;;;;27.00;97.60;;;;;;5078165;28;19925;-71
2022/05/12 08:31:10;;;;;;;;;;;27.00;97.90;;;;;;5057537;28;20891;-70
2022/05/12 08:33:38;;;;;;;;;;;27.70;97.40;;;;;;5063220;28;19933;-72
2022/05/12 08:36:05;;;;;;;;;;;27.70;96.90;;;;;;5062641;28;19939;-75
2022/05/12 08:38:32;;;;;;;;;;;28.10;97.00;;;;;;5067411;28;20043;-71
2022/05/12 08:41:04;;;;;;;;;;;27.70;96.80;;;;;;5069064;28;19929;-71
2022/05/12 08:43:38;;;;;;;;;;;26.30;98.00;;;;;;5071889;28;20470;-70
2022/05/12 08:46:06;;;;;;;;;;;25.70;98.30;;;;;;5059794;28;20403;-70
2022/05/12 08:48:35;;;;;;;;;;;26.10;98.00;;;;;;5070014;28;19924;-70
2022/05/12 08:51:05;;;;;;;;;;;26.80;97.10;;;;;;5060255;28;20701;-69
2022/05/12 08:53:37;;;;;;;;;;;27.20;96.90;;;;;;5068706;28;20538;-72
2022/05/12 08:56:04;;;;;;;;;;;27.50;96.00;;;;;;5059492;28;19938;-69
2022/05/12 08:58:33;;;;;;;;;;;27.60;96.90;;;;;;5063822;28;20030;-70
2022/05/12 09:01:02;;;;;;;;;;;27.80;96.30;;;;;;5078287;28;20256;-68
2022/05/12 09:03:53;;;;;;;;;;;27.60;95.70;;;;;;5091634;28;19924;-70
2022/05/12 09:06:41;;;;;;;;;;;27.40;96.40;;;;;;5059683;28;20375;-71
2022/05/12 09:09:18;;;;;;;;;;;28.10;96.00;;;;;;5059341;28;19928;-68
2022/05/12 09:11:51;;;;;;;;;;;28.50;95.30;;;;;;5069853;28;19924;-69
2022/05/12 09:14:25;;;;;;;;;;;28.60;95.50;;;;;;5069956;28;19924;-69
2022/05/12 09:16:56;;;;;;;;;;;28.30;94.90;;;;;;5066036;28;20002;-70
2022/05/12 09:19:25;;;;;;;;;;;28.70;95.70;;;;;;5064147;28;19964;-69
2022/05/12 09:21:52;;;;;;;;;;;28.70;95.10;;;;;;5070594;28;20030;-71
2022/05/12 09:24:18;;;;;;;;;;;28.60;94.60;;;;;;5092009;27;19935;-70
2022/05/12 09:26:46;;;;;;;;;;;29.10;96.10;;;;;;5065097;28;19931;-72
2022/05/12 09:29:21;;;;;;;;;;;29.60;95.30;;;;;;5069442;28;20428;-72
2022/05/12 09:31:56;;;;;;;;;;;30.00;94.20;;;;;;5060197;28;19925;-73
2022/05/12 09:34:34;;;;;;;;;;;30.20;93.70;;;;;;5069973;28;20496;-72
2022/05/12 09:37:18;;;;;;;;;;;30.30;93.80;;;;;;5068641;28;19931;-72
2022/05/12 09:39:55;;;;;;;;;;;30.00;93.30;;;;;;5063532;28;20379;-71
2022/05/12 09:42:27;;;;;;;;;;;30.00;95.00;;;;;;5072712;28;20367;-70
2022/05/12 09:45:20;;;;;;;;;;;29.70;93.80;;;;;;5063955;28;19933;-72
2022/05/12 09:47:47;;;;;;;;;;;29.50;94.40;;;;;;5067720;28;20007;-71
2022/05/12 09:50:26;;;;;;;;;;;28.70;94.60;;;;;;5071527;28;20278;-70
2022/05/12 09:52:57;;;;;;;;;;;28.10;93.30;;;;;;5063867;28;19932;-71
2022/05/12 09:55:36;;;;;;;;;;;28.60;95.50;;;;;;5066964;28;19931;-72
2022/05/12 09:58:06;;;;;;;;;;;28.70;94.10;;;;;;5062993;28;20028;-72
2022/05/12 10:00:33;;;;;;;;;;;28.80;94.80;;;;;;5066405;28;19932;-68
2022/05/12 10:08:51;;;;;;;;;;;;;;;;;;5065535;28;19930;-70
2022/05/12 10:11:18;;;;;;;;;;;;;;;;;;5068166;28;19931;-72
2022/05/12 10:13:55;;;;;;;;;;;;;;;;;;5053059;28;19928;-70
2022/05/12 10:16:23;;;;;;;;;;;;;;;;;;5058635;28;19931;-71
2022/05/12 10:18:51;;;;;;;;;;;;;;;;;;5071188;28;19967;-71
2022/05/12 10:21:20;;;;;;;;;;;;;;;;;;5069014;28;19946;-69
2022/05/12 10:23:47;;;;;;;;;;;;;;;;;;5059580;28;19951;-69
2022/05/12 10:26:14;;;;;;;;;;;;;;;;;;5069544;28;19961;-71
2022/05/12 10:28:42;;;;;;;;;;;;;;;;;;5068245;28;20398;-70
2022/05/12 10:31:09;;;;;;;;;;;;;;;;;;5061969;28;19928;-69
2022/05/12 10:33:36;;;;;;;;;;;;;;;;;;5064849;28;19928;-73
2022/05/12 10:36:04;;;;;;;;;;;;;;;;;;5071866;28;19925;-70
2022/05/12 10:38:31;;;;;;;;;;;;;;;;;;5071424;28;19931;-68
2022/05/12 10:40:58;;;;;;;;;;;;;;;;;;5074153;28;19937;-69
2022/05/12 10:43:32;;;;;;;;;;;;;;;;;;5064867;28;19963;-69
2022/05/12 10:45:59;;;;;;;;;;;;;;;;;;5064934;28;19925;-67
2022/05/12 10:48:26;;;;;;;;;;;;;;;;;;5067466;28;19963;-68
2022/05/12 10:50:53;;;;;;;;;;;;;;;;;;5070702;28;20406;-69
2022/05/12 10:53:20;;;;;;;;;;;;;;;;;;5070500;28;19939;-70
2022/05/12 10:55:48;;;;;;;;;;;;;;;;;;5071675;28;19925;-71
2022/05/12 10:58:19;;;;;;;;;;;;;;;;;;5066400;28;19940;-70
2022/05/12 11:00:48;;;;;;;;;;;;;;;;;;5057708;28;19925;-69
2022/05/12 11:03:15;;;;;;;;;;;;;;;;;;5058566;28;20283;-70
2022/05/12 11:05:42;;;;;;;;;;;;;;;;;;5070635;28;19935;-67
2022/05/12 11:08:10;;;;;;;;;;;;;;;;;;5061118;28;19955;-70
2022/05/12 11:10:37;;;;;;;;;;;;;;;;;;5058827;28;19924;-71
2022/05/12 11:13:04;;;;;;;;;;;;;;;;;;5078997;28;19924;-70
2022/05/12 11:15:31;;;;;;;;;;;;;;;;;;5059797;28;20295;-69
2022/05/12 11:17:58;;;;;;;;;;;;;;;;;;5055798;28;19983;-68
2022/05/12 11:20:25;;;;;;;;;;;;;;;;;;5064370;28;19967;-69
2022/05/12 11:22:52;;;;;;;;;;;;;;;;;;5090407;27;19924;-69
2022/05/12 11:25:20;;;;;;;;;;;;;;;;;;5061657;28;20008;-67
2022/05/12 11:27:47;;;;;;;;;;;;;;;;;;5053797;28;20406;-67
2022/05/12 11:30:14;;;;;;;;;;;;;;;;;;5061169;28;19925;-71
2022/05/12 11:32:41;;;;;;;;;;;;;;;;;;5061479;28;19966;-69
2022/05/12 11:35:08;;;;;;;;;;;;;;;;;;5073746;28;19924;-69
2022/05/12 11:37:36;;;;;;;;;;;;;;;;;;5062246;28;19924;-70
2022/05/12 11:40:03;;;;;;;;;;;;;;;;;;5062878;28;19925;-70
2022/05/12 11:44:23;;;;;;;;;;;;;;;;;;5067084;28;20363;-68
2022/05/12 11:45:20;;;;;;;;;;;;;;;;;;5066090;28;19967;-70
2022/05/12 11:47:48;;;;;;;;;;;;;;;;;;5065416;28;20287;-67
2022/05/12 11:50:15;;;;;;;;;;;;;;;;;;5065374;28;19924;-69
2022/05/12 11:52:42;;;;;;;;;;;;;;;;;;5066103;28;20011;-67
2022/05/12 11:55:09;;;;;;;;;;;;;;;;;;5055706;28;20374;-72
2022/05/12 11:57:37;;;;;;;;;;;;;;;;;;5052828;28;19924;-68
2022/05/12 12:00:03;;;;;;;;;;;;;;;;;;5058304;28;19931;-69
2022/05/12 12:02:30;;;;;;;;;;;;;;;;;;5092137;27;19955;-67
2022/05/12 12:04:58;;;;;;;;;;;;;;;;;;5068720;28;20027;-69
2022/05/12 12:07:25;;;;;;;;;;;;;;;;;;5054081;28;19932;-69
2022/05/12 12:09:52;;;;;;;;;;;;;;;;;;5052434;28;19925;-70
2022/05/12 12:12:19;;;;;;;;;;;;;;;;;;5057934;28;19924;-71
2022/05/12 12:14:46;;;;;;;;;;;;;;;;;;5056982;28;20007;-67
2022/05/12 12:17:19;;;;;;;;;;;;;;;;;;5063538;28;19925;-68
2022/05/12 12:19:49;;;;;;;;;;;;;;;;;;5059004;28;19925;-69
2022/05/12 12:22:16;;;;;;;;;;;;;;;;;;5060857;28;20291;-69
2022/05/12 12:24:43;;;;;;;;;;;;;;;;;;5075243;28;19931;-70
2022/05/12 12:27:10;;;;;;;;;;;;;;;;;;5052549;28;19933;-71
2022/05/12 12:29:37;;;;;;;;;;;;;;;;;;5052962;28;19925;-70
2022/05/12 12:32:04;;;;;;;;;;;;;;;;;;5057727;28;19924;-68
2022/05/12 12:34:32;;;;;;;;;;;;;;;;;;5073414;28;19934;-69
2022/05/12 12:36:59;;;;;;;;;;;;;;;;;;5071816;28;20383;-71
2022/05/12 12:39:26;;;;;;;;;;;;;;;;;;5068519;28;20027;-72
2022/05/12 12:41:53;;;;;;;;;;;;;;;;;;5099556;27;19952;-70
2022/05/12 12:44:20;;;;;;;;;;;;;;;;;;5074971;28;19924;-68
2022/05/12 12:46:47;;;;;;;;;;;;;;;;;;5075412;28;19924;-71
2022/05/12 12:49:14;;;;;;;;;;;;;;;;;;5080000;28;19924;-68
2022/05/12 12:51:41;;;;;;;;;;;;;;;;;;5072371;28;19935;-70
2022/05/12 12:57:14;;;;;;;;;;;;;;;;;;5066154;28;19943;-70
2022/05/12 12:59:41;;;;;;;;;;;;;;;;;;5050914;28;19933;-72
2022/05/12 13:02:08;;;;;;;;;;;;;;;;;;5062314;28;19929;-69
2022/05/12 13:04:36;;;;;;;;;;;;;;;;;;5059048;28;19979;-71
2022/05/12 13:07:06;;;;;;;;;;;;;;;;;;5061825;28;19925;-68
2022/05/12 13:09:35;;;;;;;;;;;;;;;;;;5062857;28;19929;-69
2022/05/12 13:12:02;;;;;;;;;;;;;;;;;;5080931;28;19923;-69
2022/05/12 13:14:31;;;;;;;;;;;;;;;;;;5090271;28;19931;-69
2022/05/12 13:16:58;;;;;;;;;;;;;;;;;;5078874;28;19934;-69
2022/05/12 13:19:25;;;;;;;;;;;;;;;;;;5070071;28;19933;-68
2022/05/12 13:21:52;;;;;;;;;;;;;;;;;;5067385;28;19932;-70
2022/05/12 13:24:19;;;;;;;;;;;;;;;;;;5063781;28;19928;-68
2022/05/12 13:26:47;;;;;;;;;;;;;;;;;;5069211;28;19948;-70
2022/05/12 13:29:16;;;;;;;;;;;;;;;;;;5067753;28;20438;-69
2022/05/12 13:31:45;;;;;;;;;;;;;;;;;;5057364;28;19960;-68
2022/05/12 13:34:12;;;;;;;;;;;;;;;;;;5058703;28;19928;-69
2022/05/12 13:36:39;;;;;;;;;;;;;;;;;;5090601;28;20029;-67
2022/05/12 13:39:07;;;;;;;;;;;;;;;;;;5059856;28;20044;-67
2022/05/12 13:41:38;;;;;;;;;;;;;;;;;;5080678;28;19964;-69
2022/05/12 13:44:05;;;;;;;;;;;;;;;;;;5072149;28;19929;-68
2022/05/12 13:46:32;;;;;;;;;;;;;;;;;;5072761;28;19924;-69
2022/05/12 13:48:59;;;;;;;;;;;;;;;;;;5078209;28;20023;-70
2022/05/12 13:51:26;;;;;;;;;;;;;;;;;;5065872;28;20466;-68
2022/05/12 13:54:08;;;;;;;;;;;;;;;;;;5072601;28;20008;-71
2022/05/12 13:56:35;;;;;;;;;;;;;;;;;;5102401;28;19929;-69
2022/05/12 13:59:02;;;;;;;;;;;;;;;;;;5065696;28;19929;-70
2022/05/12 14:01:29;;;;;;;;;;;;;;;;;;5067534;28;19925;-69
2022/05/12 14:03:56;;;;;;;;;;;;;;;;;;5068434;28;19932;-67
2022/05/12 14:06:23;;;;;;;;;;;;;;;;;;5059466;28;20375;-70
2022/05/12 14:08:50;;;;;;;;;;;;;;;;;;5057438;28;19931;-68
2022/05/12 14:11:18;;;;;;;;;;;;;;;;;;5061574;28;19931;-69
2022/05/12 14:19:19;;;;;;;;;;;;;;;;;;5065213;28;19924;-70
2022/05/12 14:21:46;;;;;;;;;;;;;;;;;;5086305;28;19950;-69
2022/05/12 14:24:14;;;;;;;;;;;;;;;;;;5068121;28;19931;-68
2022/05/12 14:26:41;;;;;;;;;;;;;;;;;;5097200;28;20399;-68
2022/05/12 14:29:09;;;;;;;;;;;;;;;;;;5068746;28;19946;-68
2022/05/12 14:31:39;;;;;;;;;;;;;;;;;;5066343;28;19928;-68
2022/05/12 14:34:06;;;;;;;;;;;;;;;;;;5072143;28;19932;-70
2022/05/12 14:36:33;;;;;;;;;;;;;;;;;;5102052;27;20315;-68
2022/05/12 14:39:00;;;;;;;;;;;;;;;;;;5074171;28;19931;-70
2022/05/12 14:41:29;;;;;;;;;;;;;;;;;;5071367;28;19924;-69
2022/05/12 14:43:59;;;;;;;;;;;;;;;;;;5066732;28;19951;-69
2022/05/12 14:46:26;;;;;;;;;;;;;;;;;;5069882;28;19955;-68
2022/05/12 14:48:54;;;;;;;;;;;;;;;;;;5065978;28;19932;-70
2022/05/12 14:51:24;;;;;;;;;;;;;;;;;;5058383;28;19939;-69
2022/05/12 14:53:51;;;;;;;;;;;;;;;;;;5062962;28;20007;-72
2022/05/12 14:56:18;;;;;;;;;;;;;;;;;;5070158;28;19924;-70
2022/05/12 14:58:45;;;;;;;;;;;;;;;;;;5076549;28;19924;-68
2022/05/12 15:01:12;;;;;;;;;;;;;;;;;;5078542;28;19939;-70
2022/05/12 15:03:42;;;;;;;;;;;;;;;;;;5056374;28;19940;-70
2022/05/12 15:06:09;;;;;;;;;;;;;;;;;;5070741;28;19931;-70
2022/05/12 15:08:36;;;;;;;;;;;;;;;;;;5067386;28;20364;-70
2022/05/12 15:11:04;;;;;;;;;;;;;;;;;;5070165;28;20394;-69
2022/05/12 15:13:31;;;;;;;;;;;;;;;;;;5061449;28;19931;-70
2022/05/12 15:15:58;;;;;;;;;;;;;;;;;;5053679;28;19925;-70
2022/05/12 15:18:25;;;;;;;;;;;;;;;;;;5061968;28;20393;-68
2022/05/12 15:20:52;;;;;;;;;;;;;;;;;;5069993;28;19959;-68
2022/05/12 15:23:25;;;;;;;;;;;;;;;;;;5060958;28;19928;-69
2022/05/12 15:25:56;;;;;;;;;;;;;;;;;;5071032;28;19928;-72
2022/05/12 15:28:23;;;;;;;;;;;;;;;;;;5065005;28;19936;-68
2022/05/12 15:30:50;;;;;;;;;;;;;;;;;;5057896;28;19931;-70
2022/05/12 15:33:17;;;;;;;;;;;;;;;;;;5065031;28;20015;-69
2022/05/12 15:35:44;;;;;;;;;;;;;;;;;;5070444;28;19924;-71
2022/05/12 15:38:11;;;;;;;;;;;;;;;;;;5062372;28;19947;-70
2022/05/12 15:40:38;;;;;;;;;;;;;;;;;;5065147;28;19924;-69